»·PEaware :: N8401T KLAX-KSAN

N8401T :: KLAX-KSAN

FLIGHT INFORMATION

Flight Status: Arrived
Operator: Privately registered:
United States
More flights under this callsign
Pilot: Simon S. (14681)
Aircraft: CESSNA 172 SKYHAWK
(C172)
More flights by this aircraft type
Origin: KLAX Los Angeles Intl
United States
Destination: KSAN San Diego Intl-Lindbergh
United States
More flights between these airports :: More routes between these airports
Route: +
File this flight plan on PilotEdge
Remarks: CAT11
Altitude:
(Current/Filed)
7,500ft
Speed:
(Current/Filed)
120kts
Departed: 24-Aug-17 05:03 PM
Arrived: 24-Aug-17 06:07 PM
Distance/Time
Traveled:
95nm/1:04
Distance/Time
To Go:
Arrived

Flight Plot

Page will automatically refresh every two minutes.


Map Options




Map Legend


Flown Route
Filed Route
Departure Airport
Arrival Airport
Navaid (VOR, NDB)
Fix

Horizontal Profiles

Position Reports

Time Latitude Longitude Heading Altitude Ground
Speed
24-Aug-17 17:00 33.935336 -118.382391 281 96ft 0kts
24-Aug-17 17:01 33.935336 -118.382391 281 96ft 0kts
24-Aug-17 17:02 33.935336 -118.382391 281 96ft 0kts
24-Aug-17 17:03 33.935336 -118.382391 281 96ft 0kts
24-Aug-17 17:04 33.935457 -118.382506 355 96ft 0kts
24-Aug-17 17:05 33.936379 -118.382708 333 96ft 0kts
24-Aug-17 17:06 33.936379 -118.382708 333 96ft 0kts
24-Aug-17 17:07 33.937020 -118.386107 263 99ft 64kts
24-Aug-17 17:08 33.935942 -118.416044 273 765ft 101kts
24-Aug-17 17:09 33.937571 -118.451664 273 1459ft 109kts
24-Aug-17 17:10 33.939250 -118.488107 273 2066ft 109kts
24-Aug-17 17:11 33.940911 -118.524279 271 2669ft 108kts
24-Aug-17 17:12 33.916210 -118.532165 179 3252ft 104kts
24-Aug-17 17:13 33.890890 -118.531031 177 4222ft 82kts
24-Aug-17 17:14 33.868428 -118.530075 177 5040ft 88kts
24-Aug-17 17:15 33.843196 -118.525038 120 5560ft 107kts
24-Aug-17 17:16 33.833242 -118.495621 151 6198ft 104kts
24-Aug-17 17:17 33.809218 -118.479330 138 6623ft 115kts
24-Aug-17 17:18 33.788067 -118.446893 127 6605ft 126kts
24-Aug-17 17:19 33.766809 -118.413586 127 6719ft 118kts
24-Aug-17 17:20 33.748291 -118.384604 127 7281ft 103kts
24-Aug-17 17:21 33.730872 -118.357356 127 7682ft 112kts
24-Aug-17 17:22 33.710340 -118.325196 127 7680ft 126kts
24-Aug-17 17:23 33.688895 -118.291571 127 7678ft 127kts
24-Aug-17 17:24 33.667445 -118.257921 127 7678ft 127kts
24-Aug-17 17:25 33.646046 -118.224349 127 7678ft 127kts
24-Aug-17 17:26 33.624584 -118.190672 127 7678ft 127kts
24-Aug-17 17:27 33.603176 -118.157069 127 7678ft 127kts
24-Aug-17 17:28 33.581544 -118.123096 127 7627ft 128kts
24-Aug-17 17:29 33.558662 -118.091935 184 7543ft 111kts
24-Aug-17 17:30 33.533578 -118.086927 101 6702ft 106kts
24-Aug-17 17:31 33.537389 -118.053252 77 6667ft 107kts
24-Aug-17 17:32 33.536553 -118.015069 126 6750ft 118kts
24-Aug-17 17:33 33.516519 -117.986489 127 7235ft 106kts
24-Aug-17 17:34 33.498558 -117.958486 131 7619ft 116kts
24-Aug-17 17:35 33.475139 -117.928538 133 7609ft 126kts
24-Aug-17 17:36 33.450916 -117.897736 133 7608ft 127kts
24-Aug-17 17:37 33.429813 -117.864536 118 7608ft 127kts
24-Aug-17 17:38 33.412862 -117.827533 121 7608ft 127kts
24-Aug-17 17:39 33.393168 -117.792444 124 7608ft 127kts
24-Aug-17 17:40 33.372346 -117.758025 128 7608ft 127kts
24-Aug-17 17:41 33.349730 -117.725504 129 7608ft 127kts
24-Aug-17 17:42 33.325894 -117.694213 133 7608ft 127kts
24-Aug-17 17:43 33.299971 -117.665188 136 7608ft 127kts
24-Aug-17 17:44 33.273953 -117.636386 136 7590ft 128kts
24-Aug-17 17:45 33.247923 -117.607583 136 7590ft 127kts
24-Aug-17 17:46 33.221914 -117.578800 136 7590ft 127kts
24-Aug-17 17:47 33.196154 -117.550298 136 7590ft 127kts
24-Aug-17 17:48 33.170091 -117.521452 136 7590ft 127kts
24-Aug-17 17:49 33.144244 -117.492827 136 7590ft 127kts
24-Aug-17 17:50 33.118280 -117.464074 136 7590ft 127kts
24-Aug-17 17:51 33.091765 -117.436676 167 7261ft 126kts
24-Aug-17 17:52 33.093100 -117.436569 121 5995ft 109kts
24-Aug-17 17:53 33.072210 -117.416213 127 5028ft 100kts
24-Aug-17 17:54 33.051263 -117.394024 145 3911ft 101kts
24-Aug-17 17:55 33.032003 -117.375574 134 3547ft 77kts
24-Aug-17 17:56 33.014709 -117.354908 137 3571ft 97kts
24-Aug-17 17:57 32.992190 -117.336770 149 3567ft 100kts
24-Aug-17 17:58 32.967573 -117.321316 160 3565ft 100kts
24-Aug-17 17:59 32.940727 -117.309975 160 3566ft 104kts
24-Aug-17 18:00 32.917849 -117.300294 160 3564ft 103kts
24-Aug-17 18:01 32.891402 -117.289108 160 3565ft 101kts
24-Aug-17 18:02 32.865011 -117.277654 149 3601ft 102kts
24-Aug-17 18:03 32.840343 -117.260347 149 3564ft 101kts
24-Aug-17 18:04 32.812048 -117.240022 147 3306ft 102kts
24-Aug-17 18:05 32.793660 -117.223954 141 2540ft 98kts
24-Aug-17 18:06 32.769527 -117.207061 153 1514ft 101kts
24-Aug-17 18:07 32.750435 -117.184599 103 1055ft 81kts
24-Aug-17 18:08 32.746547 -117.163646 101 1080ft 76kts
24-Aug-17 18:09 32.730386 -117.154082 251 972ft 81kts
24-Aug-17 18:10 32.730293 -117.176252 286 163ft 86kts
24-Aug-17 18:11 32.733958 -117.188074 13 17ft 0kts
24-Aug-17 18:12 32.734546 -117.188413 354 17ft 7kts
24-Aug-17 18:13 32.734174 -117.186489 26 17ft 6kts
24-Aug-17 18:14 32.734535 -117.186828 200 17ft 0kts
24-Aug-17 18:15 32.734535 -117.186828 200 17ft 0kts
24-Aug-17 18:16 32.734535 -117.186828 200 17ft 0kts
24-Aug-17 18:17 32.734535 -117.186828 200 17ft 0kts
24-Aug-17 18:18 32.734535 -117.186828 200 17ft 0kts
24-Aug-17 18:19 32.734535 -117.186828 200 17ft 0kts
24-Aug-17 18:20 32.734535 -117.186828 200 17ft 0kts
24-Aug-17 18:21 32.734535 -117.186828 200 17ft 0kts
24-Aug-17 18:22 32.734535 -117.186828 200 17ft 0kts
24-Aug-17 18:23 32.734535 -117.186828 200 17ft 0kts
24-Aug-17 18:24 32.734535 -117.186828 200 17ft 0kts
24-Aug-17 18:25 32.734535 -117.186828 200 17ft 0kts
24-Aug-17 18:26 32.734535 -117.186828 200 17ft 0kts

Navigation Log

Ident Type
Flight plan parsing failed, navigation log unavailable